LIRQ/FLR METAR and TAF weather

Enter ICAO airport designator
Station Type Date Time Source
LIRQ METAR 2021/04/14 19:20 UTC NOAA

LIRQ 141920Z 10006KT CAVOK 10/00 Q1020


Station Type Date Time Source
LIRQ Decoded METAR 2021/04/14 19:20 UTC NOAA

Firenze / Peretola, Italy (LIRQ) 43-48N 011-12E 38M
Apr 14, 2021 - 03:20 PM EDT / 2021.04.14 1920 UTC
Wind: from the E (100 degrees) at 7 MPH (6 KT):0
Visibility: greater than 7 mile(s):0
Temperature: 50 F (10 C)
Dew Point: 32 F (0 C)
Relative Humidity: 49%
Pressure (altimeter): 30.12 in. Hg (1020 hPa)
ob: LIRQ 141920Z 10006KT CAVOK 10/00 Q1020
cycle: 19

Station Type Date Time Source
LIRQ TAF 2021/04/14 18:21 UTC NOAA

TAF LIRQ 141700Z 1418/1518 VRB05KT 9999 SCT050
BECMG 1508/1510 05010KT

Example: see airport list